Terminal Aerodrome Forecast
Issued by NWS Upton, NY

Home | Current Version | Previous Version | Text Only | Print | Product List | Glossary On
Versions: 1 2 3 4 5 6 7 8 9 10 11 12 13 14 15 16 17 18 19 20 21 22 23 24 25 26 27 28 29 30 31 32
000
FTUS41 KOKX 231725
TAFJFK
TAF
KJFK 231725Z 2318/2424 27011KT P6SM SKC
     FM231900 24012G18KT P6SM SKC
     FM232100 20013G20KT P6SM SKC
     FM240100 20011KT P6SM SKC
     FM240500 23008KT P6SM SKC
     FM241600 21013KT P6SM SCT250
     FM241900 18016G21KT P6SM FEW250=

USA.gov is the U.S. government's official web portal to all federal, state and local government web resources and services.